Time;durP1;ratioP1;P1;durP2;ratioP2;P2;SDS_P1;SDS_P2;PMS_P1;PMS_P2;Temp;Humidity;BMP_temperature;BMP_pressure;BME280_temperature;BME280_humidity;BME280_pressure;Samples;Min_cycle;Max_cycle;Signal;HPM_P1;HPM_P2
2021/05/27 00:02:17;;;;;;;17.85;8.88;;;11.50;99.90;;;;;;4729035;30;20087;-80
2021/05/27 00:04:44;;;;;;;19.88;9.02;;;11.50;99.90;;;;;;4718873;30;20056;-79
2021/05/27 00:07:10;;;;;;;22.90;9.32;;;11.40;99.90;;;;;;4690126;30;20048;-80
2021/05/27 00:09:37;;;;;;;20.38;9.20;;;11.40;99.90;;;;;;4716370;30;20052;-79
2021/05/27 00:12:04;;;;;;;16.83;8.85;;;11.40;99.90;;;;;;4718292;30;20045;-88
2021/05/27 00:14:31;;;;;;;16.58;8.40;;;11.30;99.90;;;;;;4737024;30;20516;-89
2021/05/27 00:16:57;;;;;;;20.98;9.60;;;11.30;99.90;;;;;;4724919;30;20048;-89
2021/05/27 00:19:24;;;;;;;25.15;11.48;;;11.20;99.90;;;;;;4719583;30;20063;-88
2021/05/27 00:21:50;;;;;;;20.70;8.55;;;11.20;99.90;;;;;;4735355;30;20448;-88
2021/05/27 00:24:17;;;;;;;16.58;7.57;;;11.10;99.90;;;;;;4726842;30;20048;-87
2021/05/27 00:26:43;;;;;;;19.10;7.63;;;11.10;99.90;;;;;;4737212;30;20044;-85
2021/05/27 00:29:10;;;;;;;22.10;8.50;;;11.00;99.90;;;;;;4725575;30;20581;-83
2021/05/27 00:31:37;;;;;;;20.83;9.25;;;10.90;99.90;;;;;;4748751;30;20048;-82
2021/05/27 00:34:03;;;;;;;24.45;9.02;;;10.90;99.90;;;;;;4733220;30;20040;-82
2021/05/27 00:36:31;;;;;;;17.83;9.25;;;10.80;99.90;;;;;;4731008;30;20053;-82
2021/05/27 00:38:58;;;;;;;19.75;8.93;;;10.80;99.90;;;;;;4733260;30;20048;-83
2021/05/27 00:41:24;;;;;;;17.33;8.02;;;10.80;99.90;;;;;;4736121;30;20075;-81
2021/05/27 00:43:51;;;;;;;17.42;8.65;;;10.80;99.90;;;;;;4732748;30;20052;-82
2021/05/27 00:46:17;;;;;;;23.05;9.82;;;10.80;99.90;;;;;;4724551;30;20047;-82
2021/05/27 00:48:57;;;;;;;24.25;8.25;;;10.80;99.90;;;;;;4748953;30;20056;-82
2021/05/27 00:51:26;;;;;;;24.80;9.32;;;10.70;99.90;;;;;;4721688;30;20040;-82
2021/05/27 00:53:53;;;;;;;22.98;10.45;;;10.70;99.90;;;;;;4726763;30;20396;-82
2021/05/27 00:56:21;;;;;;;23.17;9.38;;;10.70;99.90;;;;;;4730541;30;20040;-83
2021/05/27 00:58:47;;;;;;;19.98;10.23;;;10.60;99.90;;;;;;4747075;30;20067;-82
2021/05/27 01:01:15;;;;;;;22.85;10.70;;;10.60;99.90;;;;;;4732938;30;20056;-82
2021/05/27 01:03:42;;;;;;;21.58;10.02;;;10.50;99.90;;;;;;4745439;30;20048;-82
2021/05/27 01:06:09;;;;;;;18.08;9.00;;;10.50;99.90;;;;;;4730956;30;20055;-83
2021/05/27 01:08:37;;;;;;;20.48;10.98;;;10.50;99.90;;;;;;4732382;30;20052;-83
2021/05/27 01:11:05;;;;;;;20.45;10.75;;;10.50;99.90;;;;;;4748632;30;20048;-83
2021/05/27 01:13:32;;;;;;;15.32;9.25;;;10.50;99.90;;;;;;4737335;30;20047;-83
2021/05/27 01:15:59;;;;;;;16.20;8.82;;;10.40;99.90;;;;;;4730010;30;20045;-83
2021/05/27 01:18:27;;;;;;;26.33;10.25;;;10.40;99.90;;;;;;4732605;30;20044;-83
2021/05/27 01:20:56;;;;;;;19.23;8.57;;;10.40;99.90;;;;;;4746522;30;20056;-84
2021/05/27 01:23:25;;;;;;;25.73;10.68;;;10.40;99.90;;;;;;4725606;30;20044;-83
2021/05/27 01:25:56;;;;;;;27.13;10.00;;;10.30;99.90;;;;;;4730781;30;20055;-83
2021/05/27 01:28:28;;;;;;;20.60;8.83;;;10.30;99.90;;;;;;4733488;30;20066;-82
2021/05/27 01:30:59;;;;;;;15.80;8.60;;;10.30;99.90;;;;;;4746830;30;20063;-83
2021/05/27 01:33:31;;;;;;;22.65;9.32;;;10.30;99.90;;;;;;4731749;30;20063;-83
2021/05/27 01:35:59;;;;;;;18.08;9.40;;;10.30;99.90;;;;;;4738821;30;20048;-84
2021/05/27 01:38:28;;;;;;;20.55;10.85;;;10.20;99.90;;;;;;4723983;30;20119;-84
2021/05/27 01:40:57;;;;;;;17.42;7.82;;;10.20;99.90;;;;;;4723568;30;20052;-83
2021/05/27 01:43:26;;;;;;;19.80;9.20;;;10.20;99.90;;;;;;4732370;30;20778;-83
2021/05/27 01:45:54;;;;;;;16.25;8.35;;;10.20;99.90;;;;;;4744939;30;20438;-83
2021/05/27 01:48:22;;;;;;;15.48;7.15;;;10.20;99.90;;;;;;4735558;30;20052;-82
2021/05/27 01:50:49;;;;;;;19.48;8.82;;;10.20;99.90;;;;;;4746797;30;20043;-83
2021/05/27 01:53:20;;;;;;;15.32;7.35;;;10.20;99.90;;;;;;4711599;30;20048;-82
2021/05/27 01:55:48;;;;;;;15.10;7.35;;;10.20;99.90;;;;;;4730342;30;20432;-82
2021/05/27 01:58:16;;;;;;;18.67;7.68;;;10.10;99.90;;;;;;4721241;30;20032;-82
2021/05/27 02:00:46;;;;;;;21.75;9.40;;;10.20;99.90;;;;;;4745852;30;20607;-82
2021/05/27 02:03:16;;;;;;;20.52;8.52;;;10.20;99.90;;;;;;4715584;30;20055;-81
2021/05/27 02:05:47;;;;;;;14.65;8.52;;;10.10;99.90;;;;;;4720965;30;20056;-82
2021/05/27 02:08:13;;;;;;;18.52;8.38;;;10.10;99.90;;;;;;4709092;30;20048;-83
2021/05/27 02:10:44;;;;;;;18.85;8.18;;;10.10;99.90;;;;;;4746692;30;20048;-83
2021/05/27 02:13:11;;;;;;;18.77;8.93;;;10.10;99.90;;;;;;4719667;30;20051;-81
2021/05/27 02:15:39;;;;;;;21.17;9.20;;;10.10;99.90;;;;;;4743910;30;20138;-82
2021/05/27 02:18:08;;;;;;;17.92;8.27;;;10.10;99.90;;;;;;4725300;30;20060;-83
2021/05/27 02:20:37;;;;;;;23.92;11.73;;;10.10;99.90;;;;;;4731255;30;20060;-82
2021/05/27 02:23:04;;;;;;;17.83;8.60;;;10.10;99.90;;;;;;4731242;30;20083;-83
2021/05/27 02:25:45;;;;;;;21.88;9.45;;;10.10;99.90;;;;;;4727850;30;20552;-82
2021/05/27 02:28:24;;;;;;;16.38;8.35;;;10.10;99.90;;;;;;4731260;30;20056;-83
2021/05/27 02:30:51;;;;;;;18.83;8.35;;;10.10;99.90;;;;;;4745580;30;20056;-82
2021/05/27 02:33:19;;;;;;;17.98;9.75;;;10.10;99.90;;;;;;4722137;30;20051;-83
2021/05/27 02:35:46;;;;;;;19.63;9.40;;;10.10;99.90;;;;;;4729335;30;20067;-83
2021/05/27 02:38:13;;;;;;;21.67;9.43;;;10.10;99.90;;;;;;4745875;30;20055;-83
2021/05/27 02:40:44;;;;;;;18.38;9.35;;;10.10;99.90;;;;;;4744812;30;20064;-82
2021/05/27 02:43:10;;;;;;;18.65;9.80;;;10.10;99.90;;;;;;4731019;30;20055;-82
2021/05/27 02:45:37;;;;;;;18.83;8.43;;;10.10;99.90;;;;;;4721038;30;20048;-83
2021/05/27 02:48:06;;;;;;;16.85;7.38;;;10.10;99.90;;;;;;4709787;30;20040;-83
2021/05/27 02:50:38;;;;;;;17.25;7.65;;;10.10;99.90;;;;;;4727448;30;20055;-83
2021/05/27 02:53:09;;;;;;;17.60;8.00;;;10.10;99.90;;;;;;4732199;30;20064;-82
2021/05/27 02:55:35;;;;;;;15.68;6.97;;;10.10;99.90;;;;;;4726987;30;20064;-84
2021/05/27 02:58:03;;;;;;;19.23;8.82;;;10.10;99.90;;;;;;4708303;30;20063;-84
2021/05/27 03:00:31;;;;;;;18.95;8.30;;;10.10;99.90;;;;;;4706823;30;20051;-85
2021/05/27 03:03:17;;;;;;;16.10;8.32;;;10.10;99.90;;;;;;4726723;30;20040;-83
2021/05/27 03:05:44;;;;;;;10.48;5.95;;;10.10;99.90;;;;;;4717789;30;20064;-82
2021/05/27 03:08:10;;;;;;;15.63;8.00;;;10.10;99.90;;;;;;4729270;30;20047;-81
2021/05/27 03:10:37;;;;;;;15.73;7.75;;;10.10;99.90;;;;;;4742694;30;20047;-82
2021/05/27 03:13:05;;;;;;;15.60;8.60;;;10.10;99.90;;;;;;4734875;30;20055;-81
2021/05/27 03:15:31;;;;;;;15.50;8.63;;;10.10;99.90;;;;;;4719702;30;20412;-83
2021/05/27 03:18:06;;;;;;;22.83;9.63;;;10.10;99.90;;;;;;4730431;30;20063;-82
2021/05/27 03:20:34;;;;;;;29.23;14.63;;;10.10;99.90;;;;;;4718874;30;20040;-83
2021/05/27 03:23:05;;;;;;;17.17;9.95;;;10.10;99.90;;;;;;4739970;30;20051;-82
2021/05/27 03:25:34;;;;;;;20.35;9.15;;;10.10;99.90;;;;;;4716565;30;20044;-82
2021/05/27 03:28:01;;;;;;;22.60;9.65;;;10.00;99.90;;;;;;4733730;30;20059;-83
2021/05/27 03:30:28;;;;;;;25.48;12.38;;;10.00;99.90;;;;;;4739188;30;20040;-81
2021/05/27 03:32:55;;;;;;;17.60;9.35;;;10.00;99.90;;;;;;4720374;30;20382;-81
2021/05/27 03:35:23;;;;;;;22.45;10.95;;;10.00;99.90;;;;;;4723824;30;20068;-81
2021/05/27 03:37:50;;;;;;;20.15;10.35;;;10.00;99.90;;;;;;4729721;30;20036;-81
2021/05/27 03:40:22;;;;;;;20.10;9.45;;;10.00;99.90;;;;;;4745305;30;20044;-81
2021/05/27 03:42:53;;;;;;;21.25;9.60;;;10.00;99.90;;;;;;4720703;30;20052;-81
2021/05/27 03:45:31;;;;;;;25.23;9.95;;;10.00;99.90;;;;;;4737410;30;20044;-82
2021/05/27 03:48:18;;;;;;;16.58;9.10;;;10.00;99.90;;;;;;4729872;30;20044;-81
2021/05/27 03:50:45;;;;;;;20.67;10.60;;;10.00;99.90;;;;;;4735996;30;20047;-82
2021/05/27 03:53:17;;;;;;;23.67;11.32;;;10.00;99.90;;;;;;4729489;30;20786;-81
2021/05/27 03:55:50;;;;;;;19.27;9.00;;;10.00;99.90;;;;;;4743471;30;20048;-81
2021/05/27 04:01:03;;;;;;;18.52;9.20;;;10.00;99.90;;;;;;4703382;30;20063;-81
2021/05/27 04:09:29;;;;;;;24.02;9.85;;;10.00;99.90;;;;;;4742929;30;20060;-80
2021/05/27 04:12:45;;;;;;;26.30;11.02;;;10.00;99.90;;;;;;4745711;30;20044;-81
2021/05/27 04:14:42;;;;;;;16.98;8.70;;;10.10;99.90;;;;;;4728412;30;20501;-81
2021/05/27 04:17:10;;;;;;;15.48;8.35;;;10.00;99.90;;;;;;4744307;30;20048;-81
2021/05/27 04:19:37;;;;;;;21.88;10.05;;;10.10;99.90;;;;;;4730328;30;20044;-81
2021/05/27 04:22:03;;;;;;;16.45;8.73;;;10.10;99.90;;;;;;4715637;30;20059;-81
2021/05/27 04:24:30;;;;;;;17.23;7.78;;;10.10;99.90;;;;;;4729573;30;20048;-81
2021/05/27 04:26:56;;;;;;;19.80;8.68;;;10.10;99.90;;;;;;4705449;30;20052;-80
2021/05/27 04:29:23;;;;;;;17.95;8.90;;;10.10;99.90;;;;;;4727797;30;20048;-78
2021/05/27 04:31:49;;;;;;;19.77;8.85;;;10.10;99.90;;;;;;4721558;30;20040;-80
2021/05/27 04:34:16;;;;;;;19.35;8.43;;;10.10;99.90;;;;;;4739647;30;20055;-80
2021/05/27 04:36:42;;;;;;;19.10;8.68;;;10.10;99.90;;;;;;4742095;30;20043;-79
2021/05/27 04:39:09;;;;;;;20.73;10.27;;;10.10;99.90;;;;;;4743084;30;20044;-80
2021/05/27 04:41:35;;;;;;;19.20;9.18;;;10.10;99.90;;;;;;4725863;30;20060;-79
2021/05/27 04:44:02;;;;;;;17.92;8.57;;;10.10;99.90;;;;;;4714066;30;20523;-77
2021/05/27 04:46:29;;;;;;;16.25;9.02;;;10.10;99.90;;;;;;4724781;30;20048;-78
2021/05/27 04:48:55;;;;;;;19.15;10.07;;;10.00;99.90;;;;;;4745996;30;20417;-78
2021/05/27 04:51:22;;;;;;;17.27;9.48;;;10.00;99.90;;;;;;4732035;30;20044;-78
2021/05/27 04:53:48;;;;;;;17.38;9.00;;;10.10;99.90;;;;;;4745442;30;20044;-78
2021/05/27 04:56:15;;;;;;;16.95;8.52;;;10.10;99.90;;;;;;4744447;30;20912;-80
2021/05/27 04:58:41;;;;;;;18.67;8.52;;;10.10;99.90;;;;;;4748074;30;20063;-78
2021/05/27 05:01:08;;;;;;;15.60;7.45;;;10.10;99.90;;;;;;4747273;30;20071;-81
2021/05/27 05:03:34;;;;;;;15.15;7.13;;;10.10;99.90;;;;;;4737556;30;20048;-77
2021/05/27 05:06:01;;;;;;;20.58;7.82;;;10.10;99.90;;;;;;4729183;30;20054;-77
2021/05/27 05:08:27;;;;;;;13.40;6.93;;;10.10;99.90;;;;;;4732066;30;20048;-79
2021/05/27 05:10:54;;;;;;;15.32;7.68;;;10.10;99.90;;;;;;4748411;30;20508;-79
2021/05/27 05:13:20;;;;;;;23.30;9.68;;;10.10;99.90;;;;;;4745033;30;20044;-78
2021/05/27 05:15:49;;;;;;;13.40;7.30;;;10.20;99.90;;;;;;4742453;30;20527;-78
2021/05/27 05:18:16;;;;;;;18.67;8.07;;;10.20;99.90;;;;;;4738707;30;20055;-79
2021/05/27 05:20:45;;;;;;;18.58;9.27;;;10.20;99.90;;;;;;4746565;30;20032;-79
2021/05/27 05:23:12;;;;;;;15.82;7.65;;;10.20;99.90;;;;;;4737544;30;20047;-79
2021/05/27 05:25:40;;;;;;;14.73;7.35;;;10.20;99.90;;;;;;4744444;30;20036;-79
2021/05/27 05:28:08;;;;;;;18.35;8.10;;;10.20;99.90;;;;;;4731769;30;20517;-79
2021/05/27 05:30:35;;;;;;;16.58;7.20;;;10.20;99.90;;;;;;4732770;30;20044;-80
2021/05/27 05:33:02;;;;;;;16.75;7.97;;;10.30;99.90;;;;;;4739728;30;20061;-79
2021/05/27 05:35:29;;;;;;;12.90;7.00;;;10.20;99.90;;;;;;4723477;30;20050;-78
2021/05/27 05:37:56;;;;;;;15.93;7.88;;;10.20;99.90;;;;;;4747778;30;20051;-77
2021/05/27 05:40:25;;;;;;;14.30;7.18;;;10.30;99.90;;;;;;4746636;30;20069;-79
2021/05/27 05:42:52;;;;;;;15.32;7.78;;;10.30;99.90;;;;;;4720777;30;20414;-78
2021/05/27 05:45:19;;;;;;;15.48;6.97;;;10.30;99.90;;;;;;4712520;30;20036;-78
2021/05/27 05:47:47;;;;;;;14.35;6.85;;;10.30;99.90;;;;;;4747620;30;20493;-78
2021/05/27 05:50:44;;;;;;;15.13;7.72;;;10.30;99.90;;;;;;4745542;30;20503;-79
2021/05/27 05:53:02;;;;;;;14.82;7.07;;;10.30;99.90;;;;;;4747252;30;20052;-79
2021/05/27 05:55:29;;;;;;;15.25;7.45;;;10.40;99.90;;;;;;4732534;30;20063;-79
2021/05/27 05:57:55;;;;;;;21.40;7.50;;;10.40;99.90;;;;;;4734604;30;20059;-78
2021/05/27 06:00:22;;;;;;;19.25;7.75;;;10.40;99.90;;;;;;4744893;30;20063;-79
2021/05/27 06:02:49;;;;;;;14.00;7.30;;;10.40;99.90;;;;;;4736856;30;20152;-78
2021/05/27 06:05:32;;;;;;;22.45;9.43;;;10.40;99.90;;;;;;4724228;30;20497;-78
2021/05/27 06:08:19;;;;;;;24.70;10.02;;;10.30;99.90;;;;;;4745799;30;20048;-78
2021/05/27 06:10:46;;;;;;;25.13;10.25;;;10.30;99.90;;;;;;4731060;30;20902;-78
2021/05/27 06:13:14;;;;;;;20.85;9.18;;;10.30;99.90;;;;;;4707181;30;20140;-78
2021/05/27 06:15:42;;;;;;;20.85;9.73;;;10.30;99.90;;;;;;4729953;30;20044;-78
2021/05/27 06:18:09;;;;;;;16.33;8.18;;;10.30;99.90;;;;;;4736612;30;20052;-78
2021/05/27 06:20:40;;;;;;;17.92;8.80;;;10.30;99.90;;;;;;4731297;30;20413;-78
2021/05/27 06:23:11;;;;;;;22.35;8.65;;;10.30;99.90;;;;;;4745667;30;20040;-78
2021/05/27 06:25:39;;;;;;;27.17;10.30;;;10.30;99.90;;;;;;4742994;30;20056;-76
2021/05/27 06:28:06;;;;;;;17.98;8.63;;;10.30;99.90;;;;;;4745394;30;20489;-79
2021/05/27 06:30:33;;;;;;;23.00;9.13;;;10.30;99.90;;;;;;4732107;30;20056;-78
2021/05/27 06:33:01;;;;;;;16.50;6.55;;;10.30;99.90;;;;;;4731007;30;20043;-77
2021/05/27 06:35:28;;;;;;;27.85;10.32;;;10.30;99.90;;;;;;4743504;30;20044;-77
2021/05/27 06:37:54;;;;;;;21.92;9.95;;;10.30;99.90;;;;;;4746362;30;20060;-77
2021/05/27 06:40:23;;;;;;;19.00;8.50;;;10.30;99.90;;;;;;4746200;30;20075;-78
2021/05/27 06:42:50;;;;;;;23.45;9.23;;;10.40;99.90;;;;;;4744523;30;20413;-78
2021/05/27 06:45:18;;;;;;;21.73;8.35;;;10.40;99.90;;;;;;4727222;30;20048;-78
2021/05/27 06:47:45;;;;;;;21.13;8.30;;;10.40;99.90;;;;;;4744009;30;20064;-78
2021/05/27 06:50:13;;;;;;;19.90;9.30;;;10.40;99.90;;;;;;4746047;30;20052;-78
2021/05/27 06:52:39;;;;;;;17.60;8.32;;;10.40;99.90;;;;;;4733080;30;20512;-77
2021/05/27 06:55:07;;;;;;;20.48;9.98;;;10.30;99.90;;;;;;4716872;30;20400;-78
2021/05/27 06:57:34;;;;;;;20.05;8.63;;;10.40;99.90;;;;;;4742375;30;20055;-76
2021/05/27 07:00:00;;;;;;;28.13;10.55;;;10.50;99.90;;;;;;4730266;30;20040;-77
2021/05/27 07:02:28;;;;;;;18.35;7.05;;;10.50;99.90;;;;;;4715790;30;20063;-77
2021/05/27 07:04:54;;;;;;;21.33;7.45;;;10.60;99.90;;;;;;4728443;30;20055;-78
2021/05/27 07:07:21;;;;;;;19.35;7.70;;;10.60;99.90;;;;;;4744404;30;20060;-77
2021/05/27 07:09:48;;;;;;;19.40;8.23;;;10.60;99.90;;;;;;4730037;30;20515;-78
2021/05/27 07:12:15;;;;;;;21.77;8.48;;;10.60;99.90;;;;;;4745025;30;20073;-77
2021/05/27 07:14:42;;;;;;;20.33;7.13;;;10.60;99.90;;;;;;4731472;30;20055;-77
2021/05/27 07:17:08;;;;;;;17.02;7.78;;;10.60;99.90;;;;;;4727492;30;20114;-77
2021/05/27 07:19:35;;;;;;;18.58;7.05;;;10.60;99.90;;;;;;4730507;30;20032;-77
2021/05/27 07:22:01;;;;;;;24.95;8.05;;;10.60;99.90;;;;;;4743304;30;20055;-76
2021/05/27 07:24:28;;;;;;;16.88;6.72;;;10.70;99.90;;;;;;4742886;30;20449;-77
2021/05/27 07:26:55;;;;;;;18.50;7.13;;;10.70;99.90;;;;;;4716311;30;20036;-77
2021/05/27 07:29:21;;;;;;;15.63;6.40;;;10.70;99.90;;;;;;4717271;30;20056;-76
2021/05/27 07:31:48;;;;;;;20.98;7.25;;;10.70;99.90;;;;;;4727303;30;20060;-77
2021/05/27 07:34:14;;;;;;;20.58;7.28;;;10.70;99.90;;;;;;4743773;30;20404;-76
2021/05/27 07:36:41;;;;;;;14.90;6.82;;;10.60;99.90;;;;;;4740910;30;20052;-77
2021/05/27 07:39:07;;;;;;;16.17;6.30;;;10.70;99.90;;;;;;4743542;30;20043;-77
2021/05/27 07:41:34;;;;;;;14.20;6.05;;;10.60;99.90;;;;;;4743778;30;20064;-77
2021/05/27 07:44:00;;;;;;;18.73;6.72;;;10.70;99.90;;;;;;4714632;30;20524;-77
2021/05/27 07:46:27;;;;;;;14.02;5.72;;;10.70;99.90;;;;;;4734999;30;20052;-77
2021/05/27 07:48:54;;;;;;;14.10;5.97;;;10.60;99.90;;;;;;4729547;30;20052;-77
2021/05/27 07:51:21;;;;;;;12.77;5.80;;;10.70;99.90;;;;;;4743719;30;20060;-77
2021/05/27 07:53:48;;;;;;;17.55;6.47;;;10.70;99.90;;;;;;4729194;30;20059;-77
2021/05/27 07:56:15;;;;;;;17.33;6.85;;;10.70;99.90;;;;;;4743240;30;20476;-77
2021/05/27 07:58:41;;;;;;;19.52;7.20;;;10.70;99.90;;;;;;4742823;30;20057;-76
2021/05/27 08:01:09;;;;;;;15.25;6.65;;;10.70;99.90;;;;;;4727029;30;20064;-76
2021/05/27 08:03:36;;;;;;;15.02;7.00;;;10.60;99.90;;;;;;4729704;30;20063;-77
2021/05/27 08:06:02;;;;;;;14.27;6.80;;;10.60;99.90;;;;;;4726651;30;20421;-77
2021/05/27 08:08:29;;;;;;;19.05;7.55;;;10.60;99.90;;;;;;4742925;30;20044;-77
2021/05/27 08:10:55;;;;;;;17.20;6.07;;;10.70;99.90;;;;;;4727826;30;20067;-75
2021/05/27 08:13:22;;;;;;;16.52;7.05;;;10.70;99.90;;;;;;4713827;30;20048;-77
2021/05/27 08:15:48;;;;;;;18.23;6.90;;;10.70;99.90;;;;;;4741120;30;20060;-77
2021/05/27 08:18:15;;;;;;;14.02;6.57;;;10.70;99.90;;;;;;4742042;30;20055;-77
2021/05/27 08:20:42;;;;;;;16.13;6.50;;;10.60;99.90;;;;;;4727330;30;20040;-77
2021/05/27 08:23:08;;;;;;;18.80;7.13;;;10.60;99.90;;;;;;4728135;30;20534;-77
2021/05/27 08:25:35;;;;;;;18.25;6.72;;;10.60;99.90;;;;;;4745432;30;20444;-77
2021/05/27 08:28:01;;;;;;;17.35;6.38;;;10.60;99.90;;;;;;4732036;30;20063;-77
2021/05/27 08:30:28;;;;;;;22.90;7.57;;;10.60;99.90;;;;;;4746082;30;20055;-77
2021/05/27 08:32:54;;;;;;;16.83;6.47;;;10.60;99.90;;;;;;4745975;30;20059;-77
2021/05/27 08:35:21;;;;;;;15.35;6.53;;;10.70;99.90;;;;;;4745224;30;20056;-77
2021/05/27 08:37:48;;;;;;;13.48;6.43;;;10.80;99.90;;;;;;4748628;30;20401;-77
2021/05/27 08:40:14;;;;;;;18.00;6.53;;;10.80;99.90;;;;;;4747620;30;20059;-77
2021/05/27 08:42:43;;;;;;;19.30;7.80;;;10.90;99.90;;;;;;4747696;30;20052;-77
2021/05/27 08:45:10;;;;;;;18.55;7.10;;;11.00;99.90;;;;;;4743517;30;20059;-77
2021/05/27 08:47:36;;;;;;;16.48;6.75;;;11.10;99.90;;;;;;4746283;30;20055;-77
2021/05/27 08:50:04;;;;;;;19.48;7.30;;;11.20;99.90;;;;;;4715697;30;20063;-77
2021/05/27 08:52:31;;;;;;;21.17;7.22;;;11.30;99.90;;;;;;4744467;30;20048;-76
2021/05/27 08:54:58;;;;;;;23.02;8.52;;;11.40;99.90;;;;;;4744276;30;20531;-77
2021/05/27 08:57:25;;;;;;;18.08;7.90;;;11.40;99.90;;;;;;4745120;30;20037;-77
2021/05/27 08:59:51;;;;;;;21.40;8.40;;;11.50;99.90;;;;;;4733052;30;20066;-77
2021/05/27 09:02:18;;;;;;;17.35;7.78;;;11.50;99.90;;;;;;4743834;30;20052;-77
2021/05/27 09:04:45;;;;;;;19.42;8.32;;;11.70;99.90;;;;;;4729370;30;20049;-76
2021/05/27 09:07:12;;;;;;;17.70;8.45;;;11.80;99.90;;;;;;4744576;30;20408;-76
2021/05/27 09:09:53;;;;;;;19.73;9.27;;;11.80;99.90;;;;;;4743513;30;20052;-77
2021/05/27 09:12:24;;;;;;;20.25;9.07;;;11.80;99.90;;;;;;4746433;30;20064;-77
2021/05/27 09:14:51;;;;;;;25.38;10.23;;;11.80;99.90;;;;;;4743851;30;20052;-77
2021/05/27 09:17:17;;;;;;;20.70;9.63;;;11.70;99.90;;;;;;4743881;30;20044;-76
2021/05/27 09:19:44;;;;;;;19.70;9.85;;;11.70;99.90;;;;;;4743730;30;20052;-76
2021/05/27 09:22:21;;;;;;;17.95;9.57;;;11.70;99.90;;;;;;4745066;30;20910;-77
2021/05/27 09:24:48;;;;;;;26.02;10.98;;;11.70;99.90;;;;;;4744348;30;20052;-77
2021/05/27 09:27:14;;;;;;;18.25;8.43;;;11.80;99.90;;;;;;4743471;30;20051;-76
2021/05/27 09:29:46;;;;;;;23.38;9.05;;;11.80;99.90;;;;;;4729296;30;20044;-76
2021/05/27 09:32:14;;;;;;;23.90;9.27;;;11.80;99.90;;;;;;4728660;30;20408;-76
2021/05/27 09:34:44;;;;;;;22.98;8.13;;;11.70;99.90;;;;;;4743147;30;20044;-76
2021/05/27 09:37:28;;;;;;;19.75;8.30;;;11.70;99.90;;;;;;4728917;30;20048;-78
2021/05/27 09:39:55;;;;;;;19.02;8.32;;;11.70;99.90;;;;;;4742613;30;20572;-78
2021/05/27 09:42:22;;;;;;;19.63;8.70;;;11.70;99.90;;;;;;4730005;30;20061;-77
2021/05/27 09:44:49;;;;;;;21.80;9.30;;;11.70;99.90;;;;;;4740612;30;20611;-77
2021/05/27 09:47:33;;;;;;;23.27;9.55;;;11.70;99.90;;;;;;4730349;30;20051;-77
2021/05/27 09:50:02;;;;;;;25.70;9.40;;;11.70;99.90;;;;;;4736108;30;20040;-77
2021/05/27 09:52:45;;;;;;;23.10;10.00;;;11.70;99.90;;;;;;4742557;30;20413;-77
2021/05/27 09:55:16;;;;;;;33.10;11.30;;;11.70;99.90;;;;;;4743932;30;20048;-77
2021/05/27 09:57:49;;;;;;;29.40;10.70;;;11.70;99.90;;;;;;4745253;30;20048;-77
2021/05/27 10:00:22;;;;;;;25.67;10.13;;;11.70;99.90;;;;;;4729919;30;20059;-77
2021/05/27 10:02:49;;;;;;;;;;;11.70;99.90;;;;;;4733642;30;20052;-77
2021/05/27 10:05:16;;;;;;;23.65;9.93;;;11.70;99.90;;;;;;4743116;30;19921;-77
2021/05/27 10:07:45;;;;;;;31.17;12.48;;;11.70;99.90;;;;;;4729602;30;20045;-78
2021/05/27 10:10:20;;;;;;;26.58;10.75;;;11.70;99.90;;;;;;4728758;30;20045;-76
2021/05/27 10:12:50;;;;;;;25.50;11.07;;;11.70;99.90;;;;;;4743084;30;20052;-76
2021/05/27 10:15:24;;;;;;;23.88;10.35;;;11.70;99.90;;;;;;4742775;30;20043;-77
2021/05/27 10:17:54;;;;;;;34.28;12.57;;;11.70;99.90;;;;;;4745471;30;20051;-76
2021/05/27 10:20:24;;;;;;;29.95;13.80;;;11.70;99.90;;;;;;4729564;30;20056;-77
2021/05/27 10:22:54;;;;;;;24.83;12.30;;;11.80;99.90;;;;;;4742599;30;20036;-77
2021/05/27 10:25:20;;;;;;;24.15;12.00;;;11.80;99.90;;;;;;4743744;30;20043;-77
2021/05/27 10:27:50;;;;;;;28.70;12.43;;;11.90;99.90;;;;;;4744983;30;20516;-77
2021/05/27 10:30:19;;;;;;;27.23;13.15;;;11.90;99.90;;;;;;4745668;30;20051;-77
2021/05/27 10:32:52;;;;;;;33.55;14.52;;;11.90;99.90;;;;;;4745496;30;20044;-78
2021/05/27 10:35:19;;;;;;;35.38;15.95;;;12.00;99.90;;;;;;4742848;30;20047;-78
2021/05/27 10:37:48;;;;;;;33.67;13.63;;;12.00;99.90;;;;;;4728780;30;20520;-78
2021/05/27 10:40:15;;;;;;;26.65;12.98;;;12.00;99.90;;;;;;4744084;30;20531;-78
2021/05/27 10:43:13;;;;;;;26.48;12.68;;;12.20;99.90;;;;;;4727856;30;20059;-77
2021/05/27 10:46:07;;;;;;;36.67;12.77;;;12.30;99.90;;;;;;4726487;30;20523;-79
2021/05/27 10:48:39;;;;;;;28.30;11.98;;;12.30;99.90;;;;;;4744314;30;20061;-81
2021/05/27 10:51:17;;;;;;;29.33;12.80;;;12.30;99.90;;;;;;4744555;30;20515;-81
2021/05/27 10:53:44;;;;;;;28.08;12.43;;;12.30;99.90;;;;;;4728960;30;20048;-83
2021/05/27 10:56:15;;;;;;;25.33;11.82;;;12.20;99.90;;;;;;4742025;30;20045;-76
2021/05/27 10:58:48;;;;;;;24.00;11.75;;;12.20;99.90;;;;;;4728325;30;20449;-75
2021/05/27 11:01:19;;;;;;;20.17;10.82;;;12.20;99.90;;;;;;4716243;30;20044;-77
2021/05/27 11:03:54;;;;;;;29.15;11.48;;;12.10;99.90;;;;;;4743460;30;20535;-76
2021/05/27 11:06:23;;;;;;;24.70;10.57;;;12.00;99.90;;;;;;4741914;30;20519;-76
2021/05/27 11:09:10;;;;;;;25.00;10.68;;;12.00;99.90;;;;;;4743373;30;20120;-76
2021/05/27 11:11:47;;;;;;;29.27;11.30;;;12.00;99.90;;;;;;4716453;30;20060;-76
2021/05/27 11:14:37;;;;;;;18.25;9.15;;;12.00;99.90;;;;;;4744626;30;20503;-77
2021/05/27 11:17:04;;;;;;;18.90;10.18;;;12.00;99.90;;;;;;4731886;30;20505;-76
2021/05/27 11:27:43;;;;;;;21.63;11.05;;;12.00;99.90;;;;;;4728256;30;20040;-77
2021/05/27 11:30:19;;;;;;;24.58;11.82;;;12.10;99.90;;;;;;4742289;30;20044;-76
2021/05/27 11:32:48;;;;;;;26.08;11.90;;;12.20;99.90;;;;;;4727793;30;20456;-76
2021/05/27 11:35:16;;;;;;;19.63;10.05;;;12.30;99.90;;;;;;4741469;30;20052;-77
2021/05/27 11:37:44;;;;;;;20.48;10.95;;;12.30;99.90;;;;;;4744358;30;20032;-77
2021/05/27 11:40:13;;;;;;;20.08;10.27;;;12.30;99.90;;;;;;4741460;30;20056;-76
2021/05/27 11:42:46;;;;;;;17.95;9.07;;;12.40;99.90;;;;;;4727368;30;20072;-77
2021/05/27 11:45:12;;;;;;;;;;;12.40;99.90;;;;;;4727725;30;20044;-77
2021/05/27 11:47:39;;;;;;;12.30;8.18;;;12.60;99.90;;;;;;4729121;30;19933;-76
2021/05/27 11:50:13;;;;;;;15.25;9.20;;;12.80;99.90;;;;;;4742427;30;20055;-76
2021/05/27 11:52:40;;;;;;;16.08;9.73;;;13.10;99.90;;;;;;4713027;30;20052;-76
2021/05/27 11:55:12;;;;;;;12.43;7.88;;;13.40;99.90;;;;;;4740237;30;20617;-76
2021/05/27 11:57:48;;;;;;;10.88;6.93;;;13.80;99.90;;;;;;4741532;30;20048;-77
2021/05/27 12:00:18;;;;;;;11.77;7.07;;;13.90;99.90;;;;;;4731609;30;20039;-77
2021/05/27 12:02:48;;;;;;;12.02;6.57;;;13.90;99.90;;;;;;4731063;30;20052;-77
2021/05/27 12:05:33;;;;;;;12.90;6.90;;;13.90;99.90;;;;;;4728829;30;20061;-76
2021/05/27 12:08:08;;;;;;;13.48;6.55;;;13.80;99.90;;;;;;4740921;30;20056;-76
2021/05/27 12:10:49;;;;;;;18.17;6.82;;;13.70;99.90;;;;;;4744449;30;20052;-76
2021/05/27 12:13:23;;;;;;;15.45;6.82;;;13.70;99.90;;;;;;4730321;30;20043;-76
2021/05/27 12:15:51;;;;;;;13.38;6.53;;;13.50;99.90;;;;;;4729970;30;20048;-76
2021/05/27 12:18:19;;;;;;;16.15;6.90;;;13.40;99.90;;;;;;4745663;30;20044;-77
2021/05/27 12:20:48;;;;;;;13.27;5.43;;;13.30;99.90;;;;;;4730397;30;20044;-76
2021/05/27 12:23:16;;;;;;;11.55;4.63;;;13.30;99.90;;;;;;4733630;30;20231;-77
2021/05/27 12:25:44;;;;;;;11.63;5.75;;;13.30;99.90;;;;;;4714422;30;20045;-77
2021/05/27 12:28:12;;;;;;;10.60;4.75;;;13.20;99.90;;;;;;4732207;30;20064;-77
2021/05/27 12:30:40;;;;;;;10.55;6.53;;;13.20;99.90;;;;;;4744192;30;20521;-77
2021/05/27 12:33:09;;;;;;;11.43;5.30;;;13.20;99.90;;;;;;4746375;30;20048;-77
2021/05/27 12:35:40;;;;;;;15.93;5.90;;;13.20;99.90;;;;;;4743492;30;20501;-77
2021/05/27 12:38:17;;;;;;;10.50;5.57;;;13.40;99.90;;;;;;4745550;30;20048;-76
2021/05/27 12:40:58;;;;;;;10.00;5.72;;;13.70;99.90;;;;;;4731700;30;20036;-76
2021/05/27 12:43:34;;;;;;;13.82;5.45;;;14.00;99.90;;;;;;4745012;30;20515;-76
2021/05/27 12:46:01;;;;;;;11.15;4.75;;;14.40;99.90;;;;;;4736459;30;20071;-76
2021/05/27 12:48:31;;;;;;;9.23;3.40;;;14.50;99.90;;;;;;4745254;30;20044;-77
2021/05/27 12:51:01;;;;;;;10.68;3.92;;;14.40;99.90;;;;;;4729391;30;20048;-76
2021/05/27 12:53:36;;;;;;;11.88;4.07;;;14.30;99.90;;;;;;4744895;30;20051;-75
2021/05/27 12:56:12;;;;;;;7.25;3.38;;;14.20;99.90;;;;;;4743755;30;20052;-76
2021/05/27 12:59:05;;;;;;;7.35;2.95;;;14.10;99.90;;;;;;4724294;30;20048;-76
2021/05/27 13:01:37;;;;;;;12.25;3.38;;;14.00;99.90;;;;;;4722550;30;20048;-77
2021/05/27 13:04:28;;;;;;;8.93;3.43;;;14.10;99.90;;;;;;4744510;30;20052;-75